createdAt,value
2022-10-11T00:00:59.459Z,86.12
2022-10-11T00:01:59.384Z,86.22
2022-10-11T00:02:59.355Z,86.22
2022-10-11T00:03:59.345Z,86.32
2022-10-11T00:04:59.329Z,86.36
2022-10-11T00:05:59.362Z,86.46
2022-10-11T00:06:59.337Z,86.46
2022-10-11T00:07:59.311Z,86.57
2022-10-11T00:08:59.316Z,86.46
2022-10-11T00:09:59.281Z,86.46
2022-10-11T00:10:59.266Z,86.36
2022-10-11T00:11:59.256Z,86.26
2022-10-11T00:12:59.256Z,86.26
2022-10-11T00:13:59.233Z,86.26
2022-10-11T00:14:59.226Z,86.26
2022-10-11T00:15:59.219Z,86.26
2022-10-11T00:17:00.168Z,86.26
2022-10-11T00:18:04.481Z,86.26
2022-10-11T00:19:00.196Z,86.26
2022-10-11T00:19:59.215Z,86.30
2022-10-11T00:20:59.160Z,86.40
2022-10-11T00:21:59.147Z,86.51
2022-10-11T00:22:59.130Z,86.61
2022-10-11T00:23:59.150Z,86.71
2022-10-11T00:24:59.111Z,86.81
2022-10-11T00:25:59.112Z,86.81
2022-10-11T00:26:59.082Z,86.85
2022-10-11T00:27:59.077Z,86.85
2022-10-11T00:28:59.093Z,86.85
2022-10-11T00:29:59.064Z,86.85
2022-10-11T00:30:59.053Z,86.85
2022-10-11T00:31:59.035Z,86.96
2022-10-11T00:32:59.026Z,87.06
2022-10-11T00:33:59.029Z,87.06
2022-10-11T00:34:59.002Z,87.06
2022-10-11T00:35:59.001Z,87.06
2022-10-11T00:36:59.032Z,87.20
2022-10-11T00:37:58.969Z,87.20
2022-10-11T00:38:58.965Z,87.20
2022-10-11T00:39:58.953Z,87.41
2022-10-11T00:40:58.938Z,87.51
2022-10-11T00:41:58.926Z,87.51
2022-10-11T00:42:58.919Z,87.61
2022-10-11T00:43:58.906Z,87.71
2022-10-11T00:44:58.911Z,87.82
2022-10-11T00:45:58.878Z,87.92
2022-10-11T00:46:58.862Z,87.92
2022-10-11T00:47:58.877Z,88.02
2022-10-11T00:48:58.858Z,88.02
2022-10-11T00:49:58.848Z,87.92
2022-10-11T00:50:58.829Z,88.02
2022-10-11T00:51:58.812Z,87.92
2022-10-11T00:52:59.794Z,87.92
2022-10-11T00:53:58.797Z,87.96
2022-10-11T00:54:58.809Z,87.85
2022-10-11T00:55:58.806Z,87.85
2022-10-11T00:56:58.767Z,87.85
2022-10-11T00:57:58.741Z,87.85
2022-10-11T00:58:58.735Z,87.85
2022-10-11T00:59:58.727Z,87.85
2022-10-11T01:00:58.806Z,87.76
2022-10-11T01:01:58.711Z,87.76
2022-10-11T01:02:58.686Z,87.76
2022-10-11T01:03:58.684Z,87.76
2022-10-11T01:05:25.271Z,87.76
2022-10-11T01:06:00.638Z,87.85
2022-10-11T01:06:58.645Z,87.96
2022-10-11T01:07:58.643Z,87.96
2022-10-11T01:08:58.624Z,88.00
2022-10-11T01:09:58.630Z,88.00
2022-10-11T01:10:58.615Z,88.10
2022-10-11T01:11:58.597Z,88.00
2022-10-11T01:12:58.575Z,88.10
2022-10-11T01:13:58.569Z,88.00
2022-10-11T01:14:58.561Z,87.90
2022-10-11T01:15:58.565Z,87.90
2022-10-11T01:16:58.532Z,87.79
2022-10-11T01:17:58.522Z,87.70
2022-10-11T01:18:58.536Z,87.79
2022-10-11T01:19:58.516Z,87.90
2022-10-11T01:20:58.508Z,88.00
2022-10-11T01:21:58.488Z,88.21
2022-10-11T01:22:58.467Z,88.10
2022-10-11T01:23:58.466Z,88.10
2022-10-11T01:24:58.449Z,88.10
2022-10-11T01:25:58.465Z,88.31
2022-10-11T01:26:58.428Z,88.41
2022-10-11T01:27:58.416Z,88.56
2022-10-11T01:28:58.484Z,88.45
2022-10-11T01:29:58.400Z,88.45
2022-10-11T01:30:58.399Z,88.66
2022-10-11T01:31:58.392Z,88.66
2022-10-11T01:32:58.360Z,88.76
2022-10-11T01:33:58.351Z,88.76
2022-10-11T01:34:58.332Z,88.76
2022-10-11T01:35:58.357Z,88.66
2022-10-11T01:36:59.292Z,88.45
2022-10-11T01:37:58.323Z,88.56
2022-10-11T01:38:58.302Z,88.59
2022-10-11T01:39:58.301Z,88.80
2022-10-11T01:40:58.286Z,89.11
2022-10-11T01:41:58.275Z,89.11
2022-10-11T01:42:58.249Z,89.21
2022-10-11T01:43:58.242Z,89.11
2022-10-11T01:44:58.233Z,89.21
2022-10-11T01:45:58.217Z,89.21
2022-10-11T01:46:58.215Z,89.11
2022-10-11T01:47:58.195Z,88.90
2022-10-11T01:48:58.174Z,88.80
2022-10-11T01:49:58.187Z,88.59
2022-10-11T01:50:58.164Z,88.59
2022-10-11T01:51:58.152Z,88.80
2022-10-11T01:52:58.138Z,88.80
2022-10-11T01:53:58.162Z,88.80
2022-10-11T01:55:09.186Z,88.59
2022-10-11T01:55:59.108Z,88.53
2022-10-11T01:56:58.095Z,88.53
2022-10-11T01:57:58.109Z,88.43
2022-10-11T01:58:58.068Z,88.33
2022-10-11T01:59:58.079Z,88.23
2022-10-11T02:00:58.197Z,88.12
2022-10-11T02:01:58.156Z,88.23
2022-10-11T02:02:58.029Z,88.23
2022-10-11T02:03:58.019Z,88.23
2022-10-11T02:04:58.010Z,88.02
2022-10-11T02:05:57.994Z,88.12
2022-10-11T02:06:58.000Z,88.23
2022-10-11T02:07:57.990Z,88.37
2022-10-11T02:08:57.961Z,88.53
2022-10-11T02:09:57.951Z,88.68
2022-10-11T02:10:57.941Z,88.57
2022-10-11T02:11:57.942Z,88.47
2022-10-11T02:12:57.971Z,88.78
2022-10-11T02:13:57.913Z,88.37
2022-10-11T02:14:57.896Z,88.27
2022-10-11T02:15:57.911Z,88.06
2022-10-11T02:16:57.907Z,88.06
2022-10-11T02:17:57.874Z,88.17
2022-10-11T02:18:57.865Z,88.37
2022-10-11T02:19:57.841Z,88.47
2022-10-11T02:20:57.845Z,88.47
2022-10-11T02:21:57.829Z,88.57
2022-10-11T02:22:57.846Z,88.82
2022-10-11T02:23:57.815Z,89.03
2022-10-11T02:24:57.787Z,89.23
2022-10-11T02:25:57.777Z,89.75
2022-10-11T02:26:57.766Z,89.91
2022-10-11T02:27:57.774Z,90.06
2022-10-11T02:28:57.758Z,90.01
2022-10-11T02:29:57.728Z,90.06
2022-10-11T02:30:57.748Z,90.22
2022-10-11T02:31:57.715Z,90.32
2022-10-11T02:32:57.696Z,90.42
2022-10-11T02:33:57.689Z,90.32
2022-10-11T02:34:57.691Z,90.32
2022-10-11T02:35:57.668Z,90.32
2022-10-11T02:36:57.649Z,90.22
2022-10-11T02:37:57.678Z,90.01
2022-10-11T02:38:57.625Z,89.70
2022-10-11T02:39:57.621Z,89.64
2022-10-11T02:40:58.565Z,89.75
2022-10-11T02:41:57.601Z,89.85
2022-10-11T02:42:57.601Z,89.85
2022-10-11T02:43:57.572Z,89.64
2022-10-11T02:44:57.597Z,89.44
2022-10-11T02:45:57.567Z,89.54
2022-10-11T02:46:57.551Z,89.75
2022-10-11T02:47:57.551Z,89.85
2022-10-11T02:48:57.531Z,89.95
2022-10-11T02:49:57.513Z,89.85
2022-10-11T02:50:57.495Z,89.75
2022-10-11T02:51:57.483Z,89.64
2022-10-11T02:52:57.483Z,89.64
2022-10-11T02:53:57.463Z,89.54
2022-10-11T02:54:57.460Z,89.44
2022-10-11T02:55:57.445Z,89.44
2022-10-11T02:56:57.459Z,89.34
2022-10-11T02:57:57.435Z,89.34
2022-10-11T02:58:57.415Z,89.44
2022-10-11T02:59:57.405Z,89.64
2022-10-11T03:00:57.392Z,89.64
2022-10-11T03:01:57.419Z,89.64
2022-10-11T03:02:57.371Z,89.64
2022-10-11T03:03:57.381Z,89.64
2022-10-11T03:04:57.346Z,89.64
2022-10-11T03:05:57.361Z,89.75
2022-10-11T03:06:57.338Z,89.95
2022-10-11T03:07:57.329Z,90.06
2022-10-11T03:08:57.298Z,90.06
2022-10-11T03:09:57.338Z,90.06
2022-10-11T03:10:57.283Z,90.06
2022-10-11T03:11:57.299Z,89.95
2022-10-11T03:12:57.319Z,89.95
2022-10-11T03:13:57.256Z,90.00
2022-10-11T03:14:57.240Z,90.16
2022-10-11T03:16:03.253Z,90.36
2022-10-11T03:17:17.353Z,90.47
2022-10-11T03:17:58.214Z,90.57
2022-10-11T03:18:57.193Z,90.78
2022-10-11T03:19:57.200Z,90.98
2022-10-11T03:20:57.171Z,91.08
2022-10-11T03:21:57.161Z,91.19
2022-10-11T03:22:58.118Z,91.19
2022-10-11T03:23:57.133Z,91.19
2022-10-11T03:25:03.358Z,91.19
2022-10-11T03:25:58.127Z,91.19
2022-10-11T03:26:57.110Z,91.25
2022-10-11T03:27:57.132Z,91.35
2022-10-11T03:28:57.188Z,91.45
2022-10-11T03:29:57.071Z,91.55
2022-10-11T03:30:57.072Z,91.55
2022-10-11T03:31:57.102Z,91.45
2022-10-11T03:32:57.045Z,91.35
2022-10-11T03:33:57.081Z,91.35
2022-10-11T03:34:57.030Z,91.31
2022-10-11T03:35:57.033Z,91.31
2022-10-11T03:36:57.000Z,91.41
2022-10-11T03:37:56.986Z,91.41
2022-10-11T03:38:56.996Z,91.41
2022-10-11T03:39:56.966Z,91.41
2022-10-11T03:40:56.966Z,91.31
2022-10-11T03:41:56.954Z,91.31
2022-10-11T03:42:56.942Z,91.41
2022-10-11T03:43:56.919Z,91.41
2022-10-11T03:44:56.936Z,91.41
2022-10-11T03:45:56.917Z,91.41
2022-10-11T03:46:56.939Z,91.51
2022-10-11T03:47:56.888Z,91.61
2022-10-11T03:48:56.881Z,91.57
2022-10-11T03:49:56.872Z,91.57
2022-10-11T03:50:56.847Z,91.47
2022-10-11T03:51:56.848Z,91.47
2022-10-11T03:52:56.832Z,91.47
2022-10-11T03:53:56.815Z,91.47
2022-10-11T03:54:56.812Z,91.47
2022-10-11T03:55:56.823Z,91.47
2022-10-11T03:56:56.814Z,91.37
2022-10-11T03:57:57.756Z,91.47
2022-10-11T03:58:56.771Z,91.67
2022-10-11T03:59:56.750Z,91.72
2022-10-11T04:00:56.754Z,92.03
2022-10-11T04:01:56.815Z,92.33
2022-10-11T04:02:56.726Z,92.64
2022-10-11T04:03:56.709Z,92.60
2022-10-11T04:04:56.719Z,92.40
2022-10-11T04:05:56.693Z,92.50
2022-10-11T04:06:56.681Z,92.40
2022-10-11T04:07:56.666Z,92.50
2022-10-11T04:08:56.678Z,92.50
2022-10-11T04:09:56.651Z,92.40
2022-10-11T04:10:56.636Z,92.40
2022-10-11T04:11:56.678Z,92.29
2022-10-11T04:12:56.608Z,92.25
2022-10-11T04:13:56.604Z,92.14
2022-10-11T04:14:56.609Z,92.14
2022-10-11T04:15:56.597Z,92.04
2022-10-11T04:17:00.279Z,91.94
2022-10-11T04:17:56.564Z,91.94
2022-10-11T04:18:56.545Z,91.84
2022-10-11T04:19:56.534Z,91.74
2022-10-11T04:20:56.536Z,91.63
2022-10-11T04:21:56.511Z,91.74
2022-10-11T04:22:56.498Z,91.53
2022-10-11T04:23:56.487Z,91.53
2022-10-11T04:24:56.483Z,91.63
2022-10-11T04:25:56.497Z,91.74
2022-10-11T04:26:56.451Z,91.84
2022-10-11T04:27:56.455Z,91.94
2022-10-11T04:28:56.506Z,92.04
2022-10-11T04:29:56.436Z,92.04
2022-10-11T04:30:56.436Z,92.04
2022-10-11T04:31:56.432Z,92.04
2022-10-11T04:32:56.392Z,91.94
2022-10-11T04:33:56.382Z,92.04
2022-10-11T04:34:56.390Z,92.04
2022-10-11T04:35:56.361Z,92.04
2022-10-11T04:36:56.352Z,92.14
2022-10-11T04:37:56.339Z,92.14
2022-10-11T04:38:56.334Z,92.14
2022-10-11T04:39:56.311Z,92.14
2022-10-11T04:40:56.339Z,92.35
2022-10-11T04:41:56.296Z,92.35
2022-10-11T04:42:56.296Z,92.35
2022-10-11T04:43:56.275Z,92.46
2022-10-11T04:44:56.275Z,92.46
2022-10-11T04:45:56.273Z,92.55
2022-10-11T04:46:57.204Z,92.55
2022-10-11T04:47:56.227Z,92.46
2022-10-11T04:48:56.221Z,92.35
2022-10-11T04:49:56.213Z,91.94
2022-10-11T04:50:56.201Z,91.53
2022-10-11T04:51:56.241Z,91.33
2022-10-11T04:52:56.193Z,91.33
2022-10-11T04:53:56.163Z,91.33
2022-10-11T04:54:56.168Z,91.42
2022-10-11T04:55:56.152Z,91.53
2022-10-11T04:56:56.165Z,91.63
2022-10-11T04:57:56.145Z,91.63
2022-10-11T04:58:56.126Z,91.63
2022-10-11T04:59:56.107Z,91.74
2022-10-11T05:00:56.097Z,91.84
2022-10-11T05:01:56.134Z,91.74
2022-10-11T05:02:57.031Z,91.63
2022-10-11T05:03:56.081Z,91.63
2022-10-11T05:04:56.056Z,91.42
2022-10-11T05:05:56.054Z,91.33
2022-10-11T05:06:56.063Z,91.42
2022-10-11T05:07:56.011Z,91.42
2022-10-11T05:08:56.029Z,91.42
2022-10-11T05:09:55.995Z,91.42
2022-10-11T05:10:55.983Z,91.37
2022-10-11T05:11:55.976Z,91.42
2022-10-11T05:12:55.974Z,91.53
2022-10-11T05:13:55.945Z,91.37
2022-10-11T05:14:55.933Z,91.37
2022-10-11T05:15:55.936Z,91.67
2022-10-11T05:16:55.939Z,91.88
2022-10-11T05:17:55.954Z,92.08
2022-10-11T05:18:55.920Z,92.19
2022-10-11T05:19:55.901Z,92.19
2022-10-11T05:20:55.885Z,92.04
2022-10-11T05:21:55.878Z,91.84
2022-10-11T05:22:55.877Z,91.74
2022-10-11T05:23:55.837Z,91.63
2022-10-11T05:24:55.833Z,91.63
2022-10-11T05:25:55.817Z,92.14
2022-10-11T05:26:59.748Z,91.94
2022-10-11T05:27:56.806Z,91.63
2022-10-11T05:28:55.902Z,91.42
2022-10-11T05:29:55.768Z,91.42
2022-10-11T05:30:55.783Z,91.42
2022-10-11T05:31:55.794Z,91.42
2022-10-11T05:32:55.757Z,91.33
2022-10-11T05:33:55.729Z,91.42
2022-10-11T05:34:55.816Z,91.42
2022-10-11T05:35:55.721Z,91.53
2022-10-11T05:36:55.701Z,91.53
2022-10-11T05:37:55.702Z,91.38
2022-10-11T05:38:55.703Z,91.38
2022-10-11T05:39:55.660Z,91.28
2022-10-11T05:40:55.671Z,91.38
2022-10-11T05:41:55.661Z,91.49
2022-10-11T05:42:55.638Z,91.69
2022-10-11T05:43:55.634Z,91.80
2022-10-11T05:44:55.613Z,91.80
2022-10-11T05:45:55.614Z,91.90
2022-10-11T05:46:55.601Z,91.90
2022-10-11T05:47:55.587Z,91.90
2022-10-11T05:48:55.574Z,91.90
2022-10-11T05:49:55.577Z,91.90
2022-10-11T05:50:55.550Z,91.80
2022-10-11T05:51:55.538Z,91.80
2022-10-11T05:52:55.532Z,91.69
2022-10-11T05:53:55.512Z,91.69
2022-10-11T05:54:55.513Z,91.69
2022-10-11T05:55:55.499Z,91.69
2022-10-11T05:56:55.485Z,91.69
2022-10-11T05:57:55.468Z,91.69
2022-10-11T05:58:59.912Z,91.69
2022-10-11T05:59:56.438Z,91.55
2022-10-11T06:00:55.535Z,91.55
2022-10-11T06:01:55.479Z,91.55
2022-10-11T06:02:55.417Z,91.55
2022-10-11T06:03:55.412Z,91.55
2022-10-11T06:04:55.406Z,91.55
2022-10-11T06:05:57.179Z,91.44
2022-10-11T06:06:55.420Z,91.35
2022-10-11T06:07:55.360Z,91.35
2022-10-11T06:08:55.358Z,91.44
2022-10-11T06:09:55.335Z,91.35
2022-10-11T06:10:55.344Z,91.14
2022-10-11T06:11:55.335Z,91.03
2022-10-11T06:12:55.313Z,90.99
2022-10-11T06:13:55.290Z,90.89
2022-10-11T06:14:55.287Z,90.79
2022-10-11T06:15:55.272Z,90.58
2022-10-11T06:16:55.318Z,90.37
2022-10-11T06:17:55.264Z,90.28
2022-10-11T06:18:55.254Z,90.28
2022-10-11T06:19:55.223Z,90.17
2022-10-11T06:20:55.222Z,90.17
2022-10-11T06:21:55.203Z,90.07
2022-10-11T06:22:55.228Z,89.97
2022-10-11T06:24:00.772Z,89.97
2022-10-11T06:24:56.206Z,89.87
2022-10-11T06:25:55.154Z,89.97
2022-10-11T06:26:55.167Z,89.76
2022-10-11T06:27:55.149Z,89.76
2022-10-11T06:28:55.230Z,89.76
2022-10-11T06:29:55.148Z,89.76
2022-10-11T06:30:55.165Z,89.76
2022-10-11T06:31:55.117Z,89.66
2022-10-11T06:32:55.116Z,89.62
2022-10-11T06:33:55.079Z,89.42
2022-10-11T06:34:55.080Z,89.42
2022-10-11T06:35:55.059Z,89.42
2022-10-11T06:36:55.067Z,89.31
2022-10-11T06:37:55.039Z,89.31
2022-10-11T06:38:55.041Z,89.31
2022-10-11T06:39:55.039Z,89.21
2022-10-11T06:40:55.009Z,89.31
2022-10-11T06:41:55.032Z,89.11
2022-10-11T06:42:54.992Z,89.00
2022-10-11T06:43:54.973Z,89.00
2022-10-11T06:44:54.972Z,89.00
2022-10-11T06:45:54.954Z,88.90
2022-10-11T06:46:54.971Z,88.80
2022-10-11T06:47:54.940Z,88.76
2022-10-11T06:48:54.978Z,88.76
2022-10-11T06:49:54.915Z,88.86
2022-10-11T06:50:59.911Z,88.76
2022-10-11T06:51:55.906Z,88.65
2022-10-11T06:52:54.872Z,88.45
2022-10-11T06:53:54.906Z,88.35
2022-10-11T06:54:54.871Z,88.35
2022-10-11T06:55:54.859Z,88.56
2022-10-11T06:56:54.853Z,88.65
2022-10-11T06:57:54.824Z,88.45
2022-10-11T06:58:54.815Z,88.35
2022-10-11T06:59:54.813Z,88.14
2022-10-11T07:00:54.819Z,87.94
2022-10-11T07:01:54.787Z,87.94
2022-10-11T07:02:54.809Z,87.79
2022-10-11T07:03:54.813Z,87.70
2022-10-11T07:04:54.781Z,87.59
2022-10-11T07:05:57.879Z,87.49
2022-10-11T07:06:55.733Z,87.49
2022-10-11T07:07:54.728Z,87.59
2022-10-11T07:08:54.716Z,87.49
2022-10-11T07:09:54.695Z,87.38
2022-10-11T07:10:54.682Z,87.38
2022-10-11T07:11:54.673Z,87.38
2022-10-11T07:12:54.691Z,87.49
2022-10-11T07:13:54.670Z,87.38
2022-10-11T07:14:54.649Z,87.18
2022-10-11T07:15:54.632Z,86.88
2022-10-11T07:16:54.622Z,86.88
2022-10-11T07:17:54.629Z,86.88
2022-10-11T07:18:59.606Z,86.46
2022-10-11T07:19:55.572Z,86.36
2022-10-11T07:20:54.609Z,86.77
2022-10-11T07:21:54.566Z,86.98
2022-10-11T07:22:54.684Z,86.98
2022-10-11T07:23:54.574Z,87.08
2022-10-11T07:24:54.529Z,86.88
2022-10-11T07:25:54.549Z,86.77
2022-10-11T07:26:54.514Z,86.46
2022-10-11T07:27:54.555Z,86.05
2022-10-11T07:28:54.689Z,86.16
2022-10-11T07:29:54.470Z,86.16
2022-10-11T07:30:54.486Z,86.05
2022-10-11T07:31:54.464Z,86.16
2022-10-11T07:32:54.446Z,86.12
2022-10-11T07:33:54.445Z,86.12
2022-10-11T07:34:54.431Z,86.02
2022-10-11T07:35:54.405Z,85.81
2022-10-11T07:36:54.408Z,85.81
2022-10-11T07:37:54.437Z,85.81
2022-10-11T07:38:54.378Z,86.12
2022-10-11T07:39:54.355Z,86.12
2022-10-11T07:40:54.358Z,85.88
2022-10-11T07:41:54.440Z,85.47
2022-10-11T07:42:54.403Z,85.16
2022-10-11T07:43:54.456Z,84.75
2022-10-11T07:44:54.427Z,84.55
2022-10-11T07:45:54.846Z,84.75
2022-10-11T07:46:54.775Z,84.65
2022-10-11T07:47:54.514Z,84.44
2022-10-11T07:48:54.266Z,84.20
2022-10-11T07:49:54.407Z,84.00
2022-10-11T07:50:54.245Z,83.79
2022-10-11T07:51:54.231Z,83.79
2022-10-11T07:52:54.342Z,84.00
2022-10-11T07:53:54.275Z,83.79
2022-10-11T07:54:54.221Z,83.59
2022-10-11T07:55:54.199Z,83.28
2022-10-11T07:56:54.215Z,82.87
2022-10-11T07:57:54.162Z,82.87
2022-10-11T07:58:54.178Z,82.46
2022-10-11T07:59:54.539Z,82.26
2022-10-11T08:00:54.345Z,82.15
2022-10-11T08:01:54.168Z,82.26
2022-10-11T08:02:54.105Z,82.36
2022-10-11T08:03:54.098Z,82.26
2022-10-11T08:04:54.095Z,82.36
2022-10-11T08:05:54.090Z,82.36
2022-10-11T08:06:54.079Z,82.26
2022-10-11T08:07:54.056Z,82.15
2022-10-11T08:08:54.066Z,82.12
2022-10-11T08:09:54.046Z,81.71
2022-10-11T08:10:54.036Z,81.51
2022-10-11T08:11:54.007Z,81.30
2022-10-11T08:12:54.002Z,81.30
2022-10-11T08:13:53.986Z,81.26
2022-10-11T08:14:54.008Z,80.85
2022-10-11T08:15:53.987Z,80.44
2022-10-11T08:16:53.984Z,80.34
2022-10-11T08:17:53.938Z,80.14
2022-10-11T08:18:53.936Z,80.04
2022-10-11T08:19:53.947Z,79.69
2022-10-11T08:20:53.927Z,79.59
2022-10-11T08:21:53.910Z,79.49
2022-10-11T08:22:53.906Z,79.63
2022-10-11T08:23:53.901Z,79.73
2022-10-11T08:24:53.860Z,79.93
2022-10-11T08:25:53.864Z,80.04
2022-10-11T08:26:53.851Z,80.14
2022-10-11T08:27:53.843Z,80.14
2022-10-11T08:28:53.913Z,80.14
2022-10-11T08:29:53.814Z,79.90
2022-10-11T08:30:53.806Z,79.90
2022-10-11T08:31:53.806Z,80.00
2022-10-11T08:32:53.780Z,80.10
2022-10-11T08:33:53.792Z,80.20
2022-10-11T08:34:53.827Z,80.20
2022-10-11T08:35:53.754Z,79.90
2022-10-11T08:36:53.737Z,79.90
2022-10-11T08:37:53.725Z,79.90
2022-10-11T08:38:53.739Z,79.80
2022-10-11T08:39:53.708Z,79.80
2022-10-11T08:40:53.692Z,79.90
2022-10-11T08:41:53.676Z,80.00
2022-10-11T08:42:53.667Z,80.10
2022-10-11T08:43:53.656Z,80.10
2022-10-11T08:45:10.182Z,80.00
2022-10-11T08:45:54.664Z,79.86
2022-10-11T08:46:58.200Z,79.96
2022-10-11T08:47:54.618Z,79.75
2022-10-11T08:48:53.616Z,79.75
2022-10-11T08:49:53.647Z,79.66
2022-10-11T08:50:53.600Z,79.45
2022-10-11T08:51:53.574Z,79.45
2022-10-11T08:52:53.553Z,79.21
2022-10-11T08:53:53.559Z,78.70
2022-10-11T08:54:53.551Z,78.70
2022-10-11T08:55:53.523Z,78.60
2022-10-11T08:56:53.515Z,78.70
2022-10-11T08:57:53.526Z,78.36
2022-10-11T08:58:53.511Z,77.58
2022-10-11T08:59:53.504Z,77.89
2022-10-11T09:00:53.465Z,77.89
2022-10-11T09:01:53.512Z,77.89
2022-10-11T09:03:07.932Z,78.09
2022-10-11T09:03:54.500Z,78.19
2022-10-11T09:04:53.447Z,78.09
2022-10-11T09:05:53.433Z,78.09
2022-10-11T09:06:53.417Z,77.78
2022-10-11T09:07:53.387Z,77.78
2022-10-11T09:08:53.382Z,77.68
2022-10-11T09:09:53.400Z,77.68
2022-10-11T09:10:53.360Z,77.78
2022-10-11T09:11:53.369Z,77.68
2022-10-11T09:12:53.342Z,77.68
2022-10-11T09:13:53.328Z,77.89
2022-10-11T09:14:53.326Z,77.68
2022-10-11T09:15:53.425Z,77.78
2022-10-11T09:16:53.288Z,77.78
2022-10-11T09:17:53.292Z,78.19
2022-10-11T09:18:53.268Z,78.30
2022-10-11T09:19:53.285Z,78.09
2022-10-11T09:20:53.266Z,77.98
2022-10-11T09:21:53.237Z,78.09
2022-10-11T09:22:53.227Z,78.19
2022-10-11T09:23:53.216Z,78.19
2022-10-11T09:24:53.191Z,78.19
2022-10-11T09:25:53.209Z,78.05
2022-10-11T09:26:53.193Z,78.16
2022-10-11T09:28:08.071Z,78.16
2022-10-11T09:28:57.401Z,77.64
2022-10-11T09:29:54.168Z,77.24
2022-10-11T09:30:53.165Z,77.24
2022-10-11T09:31:53.209Z,77.34
2022-10-11T09:32:53.167Z,77.10
2022-10-11T09:33:53.148Z,76.79
2022-10-11T09:34:53.086Z,76.59
2022-10-11T09:35:53.089Z,76.28
2022-10-11T09:36:53.082Z,76.08
2022-10-11T09:37:53.068Z,75.88
2022-10-11T09:38:53.071Z,75.78
2022-10-11T09:39:53.075Z,75.88
2022-10-11T09:40:53.084Z,75.84
2022-10-11T09:41:53.080Z,75.74
2022-10-11T09:42:52.997Z,75.30
2022-10-11T09:43:52.995Z,74.79
2022-10-11T09:44:52.975Z,74.58
2022-10-11T09:45:53.012Z,73.97
2022-10-11T09:46:52.998Z,74.18
2022-10-11T09:47:52.961Z,74.24
2022-10-11T09:48:53.087Z,74.35
2022-10-11T09:49:53.040Z,74.04
2022-10-11T09:50:52.906Z,73.94
2022-10-11T09:51:52.932Z,73.91
2022-10-11T09:52:52.897Z,73.50
2022-10-11T09:53:52.893Z,72.99
2022-10-11T09:54:52.875Z,72.58
2022-10-11T09:55:52.861Z,72.41
2022-10-11T09:56:52.857Z,72.99
2022-10-11T09:57:52.839Z,72.99
2022-10-11T09:58:52.824Z,72.78
2022-10-11T09:59:52.808Z,72.78
2022-10-11T10:00:52.933Z,73.30
2022-10-11T10:01:53.051Z,73.50
2022-10-11T10:02:52.785Z,73.50
2022-10-11T10:03:52.779Z,73.39
2022-10-11T10:04:52.786Z,72.89
2022-10-11T10:05:52.850Z,73.30
2022-10-11T10:06:52.768Z,73.26
2022-10-11T10:07:52.727Z,73.06
2022-10-11T10:08:52.719Z,72.45
2022-10-11T10:09:52.709Z,71.94
2022-10-11T10:10:57.067Z,72.55
2022-10-11T10:11:53.696Z,72.75
2022-10-11T10:12:52.668Z,72.55
2022-10-11T10:13:52.684Z,72.25
2022-10-11T10:14:52.667Z,72.58
2022-10-11T10:15:52.762Z,72.69
2022-10-11T10:16:52.651Z,72.89
2022-10-11T10:17:52.610Z,72.89
2022-10-11T10:18:52.930Z,72.78
2022-10-11T10:19:53.614Z,72.89
2022-10-11T10:20:52.639Z,72.72
2022-10-11T10:21:52.574Z,73.02
2022-10-11T10:22:52.572Z,73.02
2022-10-11T10:23:52.567Z,73.33
2022-10-11T10:24:52.531Z,73.63
2022-10-11T10:25:52.569Z,73.84
2022-10-11T10:26:52.521Z,73.84
2022-10-11T10:27:52.510Z,73.63
2022-10-11T10:28:52.535Z,73.74
2022-10-11T10:29:52.511Z,74.04
2022-10-11T10:30:52.521Z,73.94
2022-10-11T10:32:13.302Z,73.54
2022-10-11T10:32:53.455Z,73.13
2022-10-11T10:33:52.543Z,73.23
2022-10-11T10:34:52.428Z,72.99
2022-10-11T10:35:52.425Z,72.89
2022-10-11T10:36:52.430Z,72.99
2022-10-11T10:37:52.395Z,72.69
2022-10-11T10:38:52.560Z,72.38
2022-10-11T10:39:52.387Z,72.38
2022-10-11T10:40:52.396Z,71.87
2022-10-11T10:41:52.357Z,71.97
2022-10-11T10:42:52.407Z,72.28
2022-10-11T10:43:52.346Z,72.78
2022-10-11T10:44:52.309Z,72.69
2022-10-11T10:45:52.314Z,72.69
2022-10-11T10:46:52.316Z,72.78
2022-10-11T10:47:52.385Z,73.39
2022-10-11T10:49:54.785Z,72.78
2022-10-11T10:50:52.240Z,72.78
2022-10-11T10:51:52.268Z,72.69
2022-10-11T10:52:52.223Z,72.34
2022-10-11T10:53:52.211Z,72.14
2022-10-11T10:54:52.215Z,71.73
2022-10-11T10:55:52.223Z,71.23
2022-10-11T10:56:52.231Z,71.53
2022-10-11T10:57:52.236Z,71.77
2022-10-11T10:58:52.166Z,72.48
2022-10-11T10:59:52.240Z,72.58
2022-10-11T11:00:52.136Z,72.99
2022-10-11T11:01:53.130Z,73.02
2022-10-11T11:02:52.213Z,72.92
2022-10-11T11:03:52.148Z,73.54
2022-10-11T11:04:53.065Z,73.23
2022-10-11T11:05:52.086Z,73.23
2022-10-11T11:06:52.092Z,73.02
2022-10-11T11:07:52.057Z,73.06
2022-10-11T11:08:52.234Z,73.26
2022-10-11T11:09:52.048Z,73.47
2022-10-11T11:10:52.035Z,73.67
2022-10-11T11:11:52.009Z,73.36
2022-10-11T11:12:52.008Z,73.36
2022-10-11T11:13:52.022Z,73.26
2022-10-11T11:14:51.972Z,72.65
2022-10-11T11:15:51.971Z,73.16
2022-10-11T11:16:51.955Z,73.57
2022-10-11T11:17:51.951Z,73.67
2022-10-11T11:18:51.941Z,73.87
2022-10-11T11:19:51.934Z,73.87
2022-10-11T11:20:51.925Z,73.06
2022-10-11T11:21:51.902Z,73.16
2022-10-11T11:22:51.901Z,72.86
2022-10-11T11:23:51.886Z,72.86
2022-10-11T11:24:51.870Z,72.96
2022-10-11T11:25:51.882Z,73.02
2022-10-11T11:26:51.857Z,73.02
2022-10-11T11:27:51.844Z,72.82
2022-10-11T11:28:51.859Z,72.11
2022-10-11T11:29:55.388Z,71.80
2022-10-11T11:30:51.828Z,71.60
2022-10-11T11:31:51.793Z,70.75
2022-10-11T11:32:51.774Z,70.55
2022-10-11T11:33:51.800Z,69.74
2022-10-11T11:34:51.763Z,69.50
2022-10-11T11:35:51.753Z,69.20
2022-10-11T11:36:51.741Z,68.55
2022-10-11T11:37:56.110Z,67.64
2022-10-11T11:38:52.778Z,67.33
2022-10-11T11:39:51.710Z,66.83
2022-10-11T11:40:51.690Z,66.66
2022-10-11T11:41:51.693Z,66.66
2022-10-11T11:42:51.676Z,66.02
2022-10-11T11:43:51.663Z,65.91
2022-10-11T11:44:51.646Z,66.12
2022-10-11T11:45:51.648Z,66.52
2022-10-11T11:46:51.647Z,67.03
2022-10-11T11:47:51.619Z,66.83
2022-10-11T11:48:51.600Z,65.13
2022-10-11T11:49:51.590Z,65.23
2022-10-11T11:50:51.586Z,65.94
2022-10-11T11:51:51.584Z,66.05
2022-10-11T11:52:51.565Z,66.15
2022-10-11T11:53:51.563Z,66.79
2022-10-11T11:54:51.547Z,67.19
2022-10-11T11:55:51.521Z,67.19
2022-10-11T11:56:51.540Z,66.79
2022-10-11T11:57:51.528Z,66.99
2022-10-11T11:58:51.556Z,66.89
2022-10-11T11:59:51.494Z,66.79
2022-10-11T12:00:51.468Z,67.10
2022-10-11T12:01:51.531Z,67.19
2022-10-11T12:02:51.447Z,67.30
2022-10-11T12:03:51.456Z,67.30
2022-10-11T12:04:51.435Z,67.30
2022-10-11T12:05:51.414Z,67.10
2022-10-11T12:07:14.653Z,66.96
2022-10-11T12:07:52.399Z,66.86
2022-10-11T12:08:51.379Z,66.96
2022-10-11T12:09:51.370Z,66.76
2022-10-11T12:10:51.377Z,66.05
2022-10-11T12:11:51.598Z,65.54
2022-10-11T12:12:51.359Z,65.23
2022-10-11T12:13:51.350Z,65.13
2022-10-11T12:14:52.299Z,65.13
2022-10-11T12:15:51.302Z,65.33
2022-10-11T12:16:51.296Z,65.13
2022-10-11T12:17:51.311Z,65.10
2022-10-11T12:18:51.280Z,65.20
2022-10-11T12:19:51.263Z,64.97
2022-10-11T12:20:51.248Z,64.76
2022-10-11T12:21:51.239Z,64.53
2022-10-11T12:22:51.237Z,64.43
2022-10-11T12:23:51.235Z,64.64
2022-10-11T12:24:51.213Z,64.13
2022-10-11T12:25:51.185Z,63.42
2022-10-11T12:26:51.193Z,63.04
2022-10-11T12:27:51.166Z,63.14
2022-10-11T12:28:51.264Z,63.34
2022-10-11T12:29:51.144Z,63.34
2022-10-11T12:30:51.153Z,63.55
2022-10-11T12:31:51.127Z,63.75
2022-10-11T12:32:51.146Z,63.85
2022-10-11T12:33:51.127Z,63.95
2022-10-11T12:34:51.111Z,63.45
2022-10-11T12:35:51.104Z,63.24
2022-10-11T12:36:51.106Z,63.32
2022-10-11T12:37:51.188Z,63.11
2022-10-11T12:38:51.067Z,61.87
2022-10-11T12:39:51.039Z,61.56
2022-10-11T12:40:51.039Z,62.04
2022-10-11T12:41:51.034Z,61.83
2022-10-11T12:42:51.007Z,61.63
2022-10-11T12:43:50.990Z,61.23
2022-10-11T12:44:50.990Z,61.43
2022-10-11T12:45:50.977Z,59.20
2022-10-11T12:46:50.968Z,59.91
2022-10-11T12:47:50.942Z,60.11
2022-10-11T12:48:50.961Z,60.59
2022-10-11T12:49:50.936Z,60.79
2022-10-11T12:50:50.922Z,59.68
2022-10-11T12:51:50.914Z,57.86
2022-10-11T12:52:50.891Z,58.39
2022-10-11T12:54:14.379Z,59.00